Time;durP1;ratioP1;P1;durP2;ratioP2;P2;SDS_P1;SDS_P2;PMS_P1;PMS_P2;Temp;Humidity;BMP_temperature;BMP_pressure;BME280_temperature;BME280_humidity;BME280_pressure;Samples;Min_cycle;Max_cycle;Signal;HPM_P1;HPM_P2
2023/03/09 00:01:51;;;;;;;19.70;9.57;;;4.50;99.90;;;;;;5111301;28;20024;-48
2023/03/09 00:04:17;;;;;;;24.27;10.95;;;4.50;99.90;;;;;;5113030;28;20220;-48
2023/03/09 00:06:43;;;;;;;24.88;10.52;;;4.50;99.90;;;;;;5112614;28;20448;-45
2023/03/09 00:09:10;;;;;;;20.83;9.75;;;4.50;99.90;;;;;;5113218;27;20036;-46
2023/03/09 00:11:38;;;;;;;23.20;10.32;;;4.50;99.90;;;;;;5111821;27;20111;-46
2023/03/09 00:14:04;;;;;;;24.25;10.73;;;4.50;99.90;;;;;;5099007;28;20016;-47
2023/03/09 00:16:30;;;;;;;21.83;10.18;;;4.60;99.90;;;;;;5110745;27;20391;-46
2023/03/09 00:18:57;;;;;;;23.48;10.00;;;4.50;99.90;;;;;;5114528;27;20038;-49
2023/03/09 00:21:36;;;;;;;19.63;8.70;;;4.50;99.90;;;;;;5112941;28;20031;-50
2023/03/09 00:24:06;;;;;;;17.10;9.00;;;4.50;99.90;;;;;;5112853;28;20059;-47
2023/03/09 00:26:36;;;;;;;20.15;9.10;;;4.50;99.90;;;;;;5111612;28;20065;-52
2023/03/09 00:29:03;;;;;;;20.15;9.48;;;4.50;99.90;;;;;;5112367;28;20024;-49
2023/03/09 00:31:28;;;;;;;18.45;8.75;;;4.50;99.90;;;;;;5112964;28;20028;-47
2023/03/09 00:33:54;;;;;;;20.30;9.45;;;4.60;99.90;;;;;;5112549;28;20024;-45
2023/03/09 00:36:20;;;;;;;20.15;9.68;;;4.60;99.90;;;;;;5112493;28;20116;-46
2023/03/09 00:38:56;;;;;;;18.05;8.40;;;4.60;99.90;;;;;;5112614;28;20049;-51
2023/03/09 00:41:23;;;;;;;18.90;8.02;;;4.60;99.90;;;;;;5109530;27;20024;-54
2023/03/09 00:43:50;;;;;;;16.55;8.18;;;4.60;99.90;;;;;;5113048;28;20123;-51
2023/03/09 00:46:16;;;;;;;17.95;7.78;;;4.60;99.90;;;;;;5112637;28;20024;-53
2023/03/09 00:48:42;;;;;;;18.50;8.40;;;4.60;99.90;;;;;;5111235;28;20403;-52
2023/03/09 00:51:08;;;;;;;17.20;8.38;;;4.60;99.90;;;;;;5106675;28;20038;-48
2023/03/09 00:53:35;;;;;;;19.55;8.80;;;4.60;99.90;;;;;;5112249;28;20063;-45
2023/03/09 00:56:03;;;;;;;18.65;8.45;;;4.60;99.90;;;;;;5112376;28;20490;-45
2023/03/09 00:58:29;;;;;;;16.13;8.18;;;4.60;99.90;;;;;;5112188;28;20110;-49
2023/03/09 01:00:55;;;;;;;17.95;8.60;;;4.60;99.90;;;;;;5112132;28;20048;-47
2023/03/09 01:03:20;;;;;;;17.83;8.48;;;4.60;99.90;;;;;;5112148;28;20480;-45
2023/03/09 01:05:46;;;;;;;17.35;8.15;;;4.70;99.90;;;;;;5112542;27;20027;-44
2023/03/09 01:08:11;;;;;;;16.63;8.25;;;4.60;99.90;;;;;;5112003;28;20336;-45
2023/03/09 01:10:39;;;;;;;18.73;8.68;;;4.60;99.90;;;;;;5097722;28;20433;-45
2023/03/09 01:13:04;;;;;;;17.25;8.00;;;4.60;99.90;;;;;;5112028;28;20032;-45
2023/03/09 01:15:30;;;;;;;15.38;7.93;;;4.70;99.90;;;;;;5111782;28;20068;-45
2023/03/09 01:17:55;;;;;;;18.08;7.95;;;4.60;99.90;;;;;;5111918;28;20123;-48
2023/03/09 01:20:22;;;;;;;18.58;8.45;;;4.60;99.90;;;;;;5111879;28;20087;-45
2023/03/09 01:22:47;;;;;;;16.20;7.93;;;4.70;99.90;;;;;;5111835;28;20072;-47
2023/03/09 01:25:13;;;;;;;17.75;9.25;;;4.60;99.90;;;;;;5111568;28;20380;-48
2023/03/09 01:27:39;;;;;;;18.90;8.65;;;4.70;99.90;;;;;;5111383;28;20492;-45
2023/03/09 01:30:06;;;;;;;18.92;9.23;;;4.70;99.90;;;;;;5111759;28;20028;-49
2023/03/09 01:32:32;;;;;;;16.90;9.05;;;4.70;99.90;;;;;;5113633;27;20036;-48
2023/03/09 01:34:57;;;;;;;19.38;8.73;;;4.70;99.90;;;;;;5119377;27;20104;-45
2023/03/09 01:37:23;;;;;;;16.05;8.02;;;4.70;99.90;;;;;;5111624;28;20049;-51
2023/03/09 01:39:49;;;;;;;20.77;9.20;;;4.70;99.90;;;;;;5106759;28;20026;-45
2023/03/09 01:42:14;;;;;;;18.00;8.07;;;4.70;99.90;;;;;;5101683;28;20047;-48
2023/03/09 01:44:41;;;;;;;18.00;8.05;;;4.70;99.90;;;;;;5111240;28;20110;-50
2023/03/09 01:47:06;;;;;;;17.67;8.93;;;4.70;99.90;;;;;;5111579;28;20025;-49
2023/03/09 01:49:36;;;;;;;17.60;8.48;;;4.60;99.90;;;;;;5111269;28;20394;-51
2023/03/09 01:52:34;;;;;;;;;;;4.60;99.90;;;;;;5111706;28;20069;-52
2023/03/09 01:55:05;;;;;;;14.95;7.55;;;4.60;99.90;;;;;;5081711;28;19904;-51
2023/03/09 01:57:45;;;;;;;14.32;7.70;;;4.70;99.90;;;;;;5111239;28;20475;-46
2023/03/09 02:00:16;;;;;;;17.95;8.82;;;4.70;99.90;;;;;;5111074;28;20113;-48
2023/03/09 02:02:49;;;;;;;15.05;8.00;;;4.70;99.90;;;;;;5113954;27;20020;-46
2023/03/09 02:05:19;;;;;;;18.65;8.40;;;4.70;99.90;;;;;;5110666;28;20537;-47
2023/03/09 02:07:48;;;;;;;15.88;7.90;;;4.70;99.90;;;;;;5110751;28;20033;-49
2023/03/09 02:10:22;;;;;;;18.63;8.87;;;4.70;99.90;;;;;;5110791;28;20048;-50
2023/03/09 02:12:52;;;;;;;16.58;8.98;;;4.70;99.90;;;;;;5109628;28;20027;-48
2023/03/09 02:15:19;;;;;;;14.93;8.23;;;4.70;99.90;;;;;;5110580;28;20035;-49
2023/03/09 02:17:45;;;;;;;14.98;8.05;;;4.70;99.90;;;;;;5110828;28;20471;-47
2023/03/09 02:20:37;;;;;;;15.38;8.15;;;4.70;99.90;;;;;;5110460;28;20073;-45
2023/03/09 02:23:28;;;;;;;15.50;7.82;;;4.80;99.90;;;;;;5104994;28;20126;-52
2023/03/09 02:26:08;;;;;;;15.90;9.15;;;4.70;99.90;;;;;;5110724;28;20461;-50
2023/03/09 02:28:34;;;;;;;17.13;8.88;;;4.80;99.90;;;;;;5110853;28;20031;-47
2023/03/09 02:31:01;;;;;;;14.95;8.05;;;4.80;99.90;;;;;;5110675;28;20016;-45
2023/03/09 02:33:28;;;;;;;17.70;9.27;;;4.80;99.90;;;;;;5118487;27;20031;-51
2023/03/09 02:35:56;;;;;;;19.75;9.73;;;4.80;99.90;;;;;;5110683;28;20043;-51
2023/03/09 02:38:22;;;;;;;16.85;8.75;;;4.80;99.90;;;;;;5110594;28;20030;-47
2023/03/09 02:40:49;;;;;;;15.93;8.48;;;4.80;99.90;;;;;;5101017;28;20391;-50
2023/03/09 02:43:19;;;;;;;16.35;9.27;;;4.80;99.90;;;;;;5113459;28;20015;-51
2023/03/09 02:45:46;;;;;;;15.68;8.55;;;4.80;99.90;;;;;;5114798;27;20051;-45
2023/03/09 02:48:11;;;;;;;16.90;9.65;;;4.80;99.90;;;;;;5114702;28;20039;-52
2023/03/09 02:50:37;;;;;;;17.38;8.40;;;4.80;99.90;;;;;;5114869;28;20035;-56
2023/03/09 02:53:03;;;;;;;16.40;9.57;;;4.80;99.90;;;;;;5114594;28;20514;-51
2023/03/09 02:55:30;;;;;;;16.92;9.05;;;4.80;99.90;;;;;;5114895;28;20023;-55
2023/03/09 02:57:55;;;;;;;15.43;9.07;;;4.80;99.90;;;;;;5114636;28;20507;-48
2023/03/09 03:00:21;;;;;;;15.77;8.73;;;4.80;99.90;;;;;;5114466;28;20016;-49
2023/03/09 03:02:47;;;;;;;16.48;9.93;;;4.90;99.90;;;;;;5117524;27;20024;-48
2023/03/09 03:05:13;;;;;;;15.60;8.98;;;4.80;99.90;;;;;;5114277;28;20042;-53
2023/03/09 03:07:39;;;;;;;16.90;8.75;;;4.80;99.90;;;;;;5114659;28;20035;-50
2023/03/09 03:10:05;;;;;;;15.95;9.43;;;4.90;99.90;;;;;;5114268;28;20035;-50
2023/03/09 03:12:31;;;;;;;16.55;9.45;;;4.90;99.90;;;;;;5114076;28;20383;-46
2023/03/09 03:14:57;;;;;;;18.20;9.98;;;4.90;99.90;;;;;;5113172;27;20104;-50
2023/03/09 03:17:23;;;;;;;17.13;9.43;;;4.80;99.90;;;;;;5130257;27;20027;-48
2023/03/09 03:19:49;;;;;;;14.77;8.60;;;4.80;99.90;;;;;;5132670;27;20045;-53
2023/03/09 03:22:14;;;;;;;17.10;9.25;;;4.80;99.90;;;;;;5130577;27;20450;-45
2023/03/09 03:24:40;;;;;;;15.68;9.43;;;4.90;99.90;;;;;;5132541;27;20035;-55
2023/03/09 03:27:07;;;;;;;16.75;9.95;;;4.90;99.90;;;;;;5121922;27;20111;-45
2023/03/09 03:29:33;;;;;;;17.67;9.75;;;4.90;99.90;;;;;;5132363;27;20035;-46
2023/03/09 03:31:59;;;;;;;17.92;10.00;;;4.90;99.90;;;;;;5132468;27;20026;-51
2023/03/09 03:34:25;;;;;;;17.50;9.85;;;4.90;99.90;;;;;;5130227;27;20046;-51
2023/03/09 03:36:51;;;;;;;17.23;10.10;;;4.90;99.90;;;;;;5132215;27;20019;-49
2023/03/09 03:39:16;;;;;;;18.90;10.45;;;4.90;99.90;;;;;;5130561;27;20043;-45
2023/03/09 03:41:42;;;;;;;18.38;10.68;;;4.90;99.90;;;;;;5098797;27;20108;-47
2023/03/09 03:44:08;;;;;;;18.88;11.18;;;4.80;99.90;;;;;;5113681;28;20185;-49
2023/03/09 03:46:33;;;;;;;15.90;9.50;;;4.90;99.90;;;;;;5113513;28;20019;-51
2023/03/09 03:48:59;;;;;;;18.80;10.38;;;4.90;99.90;;;;;;5113376;28;20042;-46
2023/03/09 03:51:25;;;;;;;18.20;9.90;;;4.90;99.90;;;;;;5112968;28;20034;-49
2023/03/09 03:53:50;;;;;;;18.23;10.23;;;4.90;99.90;;;;;;5112454;28;20063;-50
2023/03/09 03:56:17;;;;;;;21.25;11.05;;;4.90;99.90;;;;;;5123979;27;20039;-50
2023/03/09 03:58:42;;;;;;;19.95;10.82;;;4.90;99.90;;;;;;5113300;27;20108;-49
2023/03/09 04:01:08;;;;;;;19.33;10.80;;;4.90;99.90;;;;;;5113498;28;20081;-46
2023/03/09 04:03:34;;;;;;;20.80;11.10;;;4.90;99.90;;;;;;5112988;28;20127;-51
2023/03/09 04:06:02;;;;;;;19.10;11.07;;;4.90;99.90;;;;;;5113243;28;20027;-49
2023/03/09 04:08:28;;;;;;;20.15;10.43;;;4.90;99.90;;;;;;5113284;28;20055;-49
2023/03/09 04:10:54;;;;;;;19.85;10.95;;;4.90;99.90;;;;;;5113131;28;20491;-46
2023/03/09 04:13:20;;;;;;;19.50;10.90;;;4.90;99.90;;;;;;5112922;28;20012;-45
2023/03/09 04:15:45;;;;;;;22.70;12.55;;;5.00;99.90;;;;;;5112773;28;20032;-47
2023/03/09 04:18:11;;;;;;;22.27;12.70;;;4.90;99.90;;;;;;5119407;27;20019;-46
2023/03/09 04:20:38;;;;;;;23.23;11.43;;;4.90;99.90;;;;;;5118631;27;20134;-48
2023/03/09 04:23:04;;;;;;;21.83;12.02;;;4.90;99.90;;;;;;5098961;28;20046;-48
2023/03/09 04:25:29;;;;;;;21.98;12.23;;;4.90;99.90;;;;;;5112743;28;20379;-47
2023/03/09 04:27:56;;;;;;;21.33;11.43;;;4.90;99.90;;;;;;5111507;28;20039;-47
2023/03/09 04:30:23;;;;;;;22.83;11.70;;;4.90;99.90;;;;;;5111443;28;20020;-49
2023/03/09 04:32:49;;;;;;;24.40;12.57;;;4.90;99.90;;;;;;5112651;28;20059;-54
2023/03/09 04:35:16;;;;;;;25.52;12.75;;;4.90;99.90;;;;;;5112630;28;20113;-48
2023/03/09 04:37:43;;;;;;;23.15;12.15;;;4.90;99.90;;;;;;5112531;28;20028;-45
2023/03/09 04:40:10;;;;;;;23.48;12.95;;;4.90;99.90;;;;;;5105611;28;20046;-45
2023/03/09 04:42:36;;;;;;;22.92;12.35;;;4.90;99.90;;;;;;5105769;28;20043;-45
2023/03/09 04:45:03;;;;;;;21.38;11.05;;;4.80;99.90;;;;;;5112413;28;20020;-45
2023/03/09 04:47:28;;;;;;;26.38;12.48;;;4.70;99.90;;;;;;5113472;27;20031;-45
2023/03/09 04:49:54;;;;;;;27.30;12.65;;;4.70;99.90;;;;;;5093280;27;20028;-45
2023/03/09 04:52:20;;;;;;;22.25;12.15;;;4.70;99.90;;;;;;5093630;28;20024;-45
2023/03/09 04:54:47;;;;;;;25.45;13.07;;;4.70;99.90;;;;;;5097793;28;20051;-45
2023/03/09 04:57:13;;;;;;;22.65;11.73;;;4.80;99.90;;;;;;5108359;28;20023;-44
2023/03/09 04:59:38;;;;;;;25.42;12.13;;;4.70;99.90;;;;;;5101236;28;20027;-47
2023/03/09 05:02:04;;;;;;;24.55;12.50;;;4.80;99.90;;;;;;5110986;28;20391;-45
2023/03/09 05:04:30;;;;;;;20.90;11.40;;;4.80;99.90;;;;;;5111970;28;20032;-46
2023/03/09 05:06:55;;;;;;;22.70;12.02;;;4.80;99.90;;;;;;5097368;28;20031;-45
2023/03/09 05:09:21;;;;;;;22.77;12.68;;;4.80;99.90;;;;;;5110617;28;20043;-52
2023/03/09 05:11:51;;;;;;;20.95;11.93;;;4.90;99.90;;;;;;5112029;28;20387;-47
2023/03/09 05:14:18;;;;;;;26.30;12.90;;;4.90;99.90;;;;;;5111709;28;20039;-48
2023/03/09 05:16:44;;;;;;;24.33;12.50;;;4.90;99.90;;;;;;5111812;28;20031;-47
2023/03/09 05:19:10;;;;;;;26.98;13.15;;;4.90;99.90;;;;;;5125104;27;20019;-46
2023/03/09 05:21:36;;;;;;;30.17;13.77;;;4.90;99.90;;;;;;5113823;27;20020;-50
2023/03/09 05:24:03;;;;;;;27.95;13.48;;;4.90;99.90;;;;;;5104340;27;20565;-50
2023/03/09 05:26:29;;;;;;;22.98;12.55;;;4.90;99.90;;;;;;5111185;28;20024;-48
2023/03/09 05:28:54;;;;;;;26.33;12.73;;;4.90;99.90;;;;;;5111682;28;20373;-48
2023/03/09 05:31:20;;;;;;;26.15;13.20;;;4.90;99.90;;;;;;5111392;28;20091;-45
2023/03/09 05:33:46;;;;;;;29.70;14.18;;;4.90;99.90;;;;;;5111476;28;20038;-47
2023/03/09 05:36:25;;;;;;;25.23;12.93;;;4.90;99.90;;;;;;5110942;28;20188;-45
2023/03/09 05:38:52;;;;;;;27.70;14.13;;;4.90;99.90;;;;;;5111652;28;20120;-42
2023/03/09 05:41:18;;;;;;;29.42;14.13;;;4.90;99.90;;;;;;5111346;28;20258;-52
2023/03/09 05:43:44;;;;;;;29.63;13.98;;;4.90;99.90;;;;;;5111372;28;20034;-45
2023/03/09 05:46:12;;;;;;;28.75;13.98;;;5.00;99.90;;;;;;5111509;28;20024;-47
2023/03/09 05:48:38;;;;;;;31.13;13.68;;;4.90;99.90;;;;;;5115052;27;20032;-51
2023/03/09 05:51:04;;;;;;;31.10;14.43;;;4.90;99.90;;;;;;5111197;28;20384;-50
2023/03/09 05:53:31;;;;;;;35.45;16.92;;;4.90;99.90;;;;;;5111115;28;20088;-45
2023/03/09 05:55:57;;;;;;;33.78;15.25;;;4.90;99.90;;;;;;5111190;28;20016;-45
2023/03/09 05:58:23;;;;;;;37.72;14.68;;;4.90;99.90;;;;;;5109090;27;20029;-53
2023/03/09 06:00:49;;;;;;;35.72;16.02;;;4.90;99.90;;;;;;5111300;28;20024;-45
2023/03/09 06:03:15;;;;;;;33.42;15.05;;;5.00;99.90;;;;;;5111141;28;20058;-48
2023/03/09 06:05:41;;;;;;;33.45;15.15;;;4.90;99.90;;;;;;5110988;28;20054;-46
2023/03/09 06:08:06;;;;;;;42.40;15.40;;;5.00;99.90;;;;;;5111073;28;20040;-48
2023/03/09 06:10:32;;;;;;;41.40;16.58;;;4.90;99.90;;;;;;5101423;28;20026;-50
2023/03/09 06:12:58;;;;;;;37.25;16.25;;;4.90;99.90;;;;;;5101761;28;20020;-45
2023/03/09 06:15:23;;;;;;;36.55;16.33;;;5.00;99.90;;;;;;5112809;27;20023;-48
2023/03/09 06:17:49;;;;;;;32.20;14.93;;;5.00;99.90;;;;;;5120740;27;20031;-45
2023/03/09 06:20:15;;;;;;;36.10;14.88;;;5.00;99.90;;;;;;5117852;28;20432;-49
2023/03/09 06:22:40;;;;;;;35.83;14.52;;;5.00;99.90;;;;;;5117650;27;20135;-53
2023/03/09 06:25:07;;;;;;;33.38;15.38;;;5.00;99.90;;;;;;5121238;28;20061;-50
2023/03/09 06:27:36;;;;;;;35.33;15.88;;;4.90;99.90;;;;;;5120013;27;20137;-45
2023/03/09 06:30:02;;;;;;;39.20;15.68;;;5.00;99.90;;;;;;5119918;28;20216;-47
2023/03/09 06:32:27;;;;;;;34.15;15.10;;;5.00;99.90;;;;;;5121963;27;20106;-45
2023/03/09 06:34:53;;;;;;;41.85;15.38;;;5.00;99.90;;;;;;5117663;28;20046;-46
2023/03/09 06:37:19;;;;;;;39.78;16.00;;;4.90;99.90;;;;;;5123553;27;20493;-46
2023/03/09 06:39:44;;;;;;;44.50;15.98;;;5.00;99.90;;;;;;5117756;27;20494;-51
2023/03/09 06:42:10;;;;;;;37.03;14.63;;;5.10;99.90;;;;;;5121584;28;20114;-55
2023/03/09 06:44:35;;;;;;;40.90;16.10;;;5.00;99.90;;;;;;5120024;27;20388;-45
2023/03/09 06:47:01;;;;;;;42.25;16.90;;;5.00;99.90;;;;;;5119311;28;20411;-47
2023/03/09 06:49:27;;;;;;;37.63;15.70;;;5.00;99.90;;;;;;5121171;27;20124;-46
2023/03/09 06:51:52;;;;;;;40.97;16.15;;;5.00;99.90;;;;;;5117450;28;20108;-45
2023/03/09 06:54:18;;;;;;;37.30;15.70;;;5.10;99.90;;;;;;5122126;28;20023;-47
2023/03/09 06:56:43;;;;;;;40.42;15.65;;;5.00;99.90;;;;;;5116207;27;20016;-49
2023/03/09 06:59:09;;;;;;;36.75;15.40;;;5.00;99.90;;;;;;5097775;28;20031;-45
2023/03/09 07:01:35;;;;;;;35.88;14.52;;;5.10;99.90;;;;;;5110807;28;20048;-46
2023/03/09 07:04:01;;;;;;;35.60;14.68;;;5.10;99.90;;;;;;5110360;28;20016;-49
2023/03/09 07:06:26;;;;;;;37.13;15.35;;;5.20;99.90;;;;;;5110415;28;20051;-46
2023/03/09 07:08:52;;;;;;;34.03;13.75;;;5.20;99.90;;;;;;5110424;28;20394;-45
2023/03/09 07:11:18;;;;;;;36.30;14.60;;;5.20;99.90;;;;;;5110570;28;20435;-45
2023/03/09 07:13:43;;;;;;;34.50;14.02;;;5.20;99.90;;;;;;5110385;28;20024;-47
2023/03/09 07:16:09;;;;;;;37.67;15.35;;;5.20;99.90;;;;;;5110547;28;20376;-48
2023/03/09 07:18:34;;;;;;;38.38;15.07;;;5.20;99.90;;;;;;5120940;28;20075;-46
2023/03/09 07:21:01;;;;;;;33.83;14.43;;;5.30;99.90;;;;;;5110640;28;20080;-46
2023/03/09 07:23:31;;;;;;;40.50;15.68;;;5.30;99.90;;;;;;5110370;28;20027;-45
2023/03/09 07:26:01;;;;;;;38.20;15.43;;;5.20;99.90;;;;;;5111580;28;20015;-49
2023/03/09 07:28:26;;;;;;;38.13;15.68;;;5.30;99.90;;;;;;5113909;28;20031;-46
2023/03/09 07:30:52;;;;;;;42.90;15.43;;;5.30;99.90;;;;;;5113896;28;20031;-46
2023/03/09 07:33:18;;;;;;;41.03;15.82;;;5.30;99.90;;;;;;5113808;28;20023;-51
2023/03/09 07:35:43;;;;;;;46.30;16.00;;;5.30;99.90;;;;;;5113654;28;20388;-45
2023/03/09 07:38:09;;;;;;;49.85;15.23;;;5.30;99.90;;;;;;5113767;28;20542;-47
2023/03/09 07:40:35;;;;;;;44.13;14.68;;;5.30;99.90;;;;;;5113878;28;20103;-45
2023/03/09 07:43:01;;;;;;;43.28;14.63;;;5.30;99.90;;;;;;5113845;28;20559;-50
2023/03/09 07:45:28;;;;;;;40.20;16.02;;;5.40;99.90;;;;;;5113383;28;20020;-52
2023/03/09 07:47:53;;;;;;;40.75;13.90;;;5.40;99.90;;;;;;5119393;27;20123;-48
2023/03/09 07:50:19;;;;;;;41.17;15.07;;;5.40;99.90;;;;;;5121256;27;20043;-45
2023/03/09 07:52:45;;;;;;;42.72;15.45;;;5.40;99.90;;;;;;5125302;27;20031;-45
2023/03/09 07:55:12;;;;;;;35.10;12.85;;;5.50;99.90;;;;;;5119662;27;20038;-47
2023/03/09 07:57:39;;;;;;;45.42;14.85;;;5.40;99.90;;;;;;5110323;27;20023;-45
2023/03/09 08:00:12;;;;;;;36.92;14.38;;;5.50;99.90;;;;;;5107877;28;20372;-46
2023/03/09 08:02:41;;;;;;;36.03;13.35;;;5.50;99.90;;;;;;5113433;27;20035;-50
2023/03/09 08:05:09;;;;;;;34.37;12.90;;;5.60;99.90;;;;;;5112906;28;20055;-47
2023/03/09 08:07:35;;;;;;;35.33;12.77;;;5.60;99.90;;;;;;5113013;28;20024;-45
2023/03/09 08:10:01;;;;;;;32.42;13.18;;;5.60;99.90;;;;;;5113067;28;20031;-52
2023/03/09 08:12:27;;;;;;;28.70;12.18;;;5.60;99.90;;;;;;5112883;28;20112;-50
2023/03/09 08:14:53;;;;;;;28.55;11.45;;;5.70;99.90;;;;;;5112988;28;20476;-48
2023/03/09 08:17:18;;;;;;;26.55;11.82;;;5.70;99.90;;;;;;5111525;27;20023;-45
2023/03/09 08:19:44;;;;;;;26.90;10.23;;;5.70;99.90;;;;;;5123770;27;20115;-44
2023/03/09 08:22:10;;;;;;;26.92;11.90;;;5.70;99.90;;;;;;5108958;27;20073;-45
2023/03/09 08:24:36;;;;;;;26.13;11.13;;;5.70;99.90;;;;;;5111595;28;20411;-47
2023/03/09 08:27:01;;;;;;;27.23;11.82;;;5.70;99.90;;;;;;5111465;27;20150;-44
2023/03/09 08:29:27;;;;;;;25.88;10.70;;;5.80;99.90;;;;;;5109023;27;20067;-51
2023/03/09 08:31:53;;;;;;;27.20;11.02;;;5.80;99.90;;;;;;5117537;27;20475;-45
2023/03/09 08:34:19;;;;;;;23.80;10.68;;;5.90;99.90;;;;;;5111497;28;20076;-48
2023/03/09 08:36:45;;;;;;;24.58;10.25;;;6.00;99.90;;;;;;5111608;28;20054;-47
2023/03/09 08:39:11;;;;;;;29.88;12.07;;;6.10;99.90;;;;;;5111827;27;20096;-43
2023/03/09 08:41:37;;;;;;;25.55;11.15;;;6.10;99.90;;;;;;5112892;27;20055;-45
2023/03/09 08:44:03;;;;;;;30.75;12.02;;;6.10;99.90;;;;;;5112412;27;20043;-45
2023/03/09 08:46:28;;;;;;;34.42;13.35;;;6.20;99.90;;;;;;5112302;27;20020;-46
2023/03/09 08:48:56;;;;;;;37.75;15.77;;;6.30;99.90;;;;;;5112303;28;20035;-46
2023/03/09 08:51:22;;;;;;;32.67;13.57;;;6.30;99.90;;;;;;5108987;27;20058;-48
2023/03/09 08:53:48;;;;;;;37.92;14.95;;;6.30;99.90;;;;;;5116216;27;20060;-45
2023/03/09 08:56:14;;;;;;;36.60;13.52;;;6.30;99.90;;;;;;5116481;27;20011;-49
2023/03/09 08:58:40;;;;;;;33.60;12.68;;;6.30;99.90;;;;;;5097635;28;20434;-51
2023/03/09 09:01:10;;;;;;;35.33;12.27;;;6.40;99.90;;;;;;5107135;27;20015;-53
2023/03/09 09:03:38;;;;;;;26.95;11.43;;;6.50;99.90;;;;;;5128587;27;20107;-49
2023/03/09 09:06:14;;;;;;;29.65;11.73;;;6.60;99.90;;;;;;5123245;27;20422;-50
2023/03/09 09:08:42;;;;;;;26.92;11.18;;;6.60;99.90;;;;;;5115496;27;20038;-47
2023/03/09 09:11:10;;;;;;;26.10;9.63;;;6.50;99.90;;;;;;5101886;28;20391;-50
2023/03/09 09:13:37;;;;;;;21.13;8.73;;;6.60;99.90;;;;;;5111367;27;20589;-46
2023/03/09 09:16:05;;;;;;;20.30;8.30;;;6.60;99.90;;;;;;5099667;27;20016;-48
2023/03/09 09:18:32;;;;;;;18.55;8.18;;;6.60;99.90;;;;;;5108506;27;20035;-45
2023/03/09 09:20:58;;;;;;;16.27;7.75;;;6.70;99.90;;;;;;5111107;28;20046;-48
2023/03/09 09:23:23;;;;;;;15.43;7.30;;;6.80;99.90;;;;;;5098318;27;20490;-46
2023/03/09 09:25:56;;;;;;;15.45;7.78;;;6.80;99.90;;;;;;5108794;27;20031;-44
2023/03/09 09:28:22;;;;;;;16.95;7.90;;;6.90;99.90;;;;;;5102599;27;20389;-47
2023/03/09 09:30:56;;;;;;;16.63;7.63;;;7.00;99.90;;;;;;5111519;28;20475;-48
2023/03/09 09:33:22;;;;;;;17.85;7.10;;;7.20;99.90;;;;;;5111403;28;20027;-46
2023/03/09 09:36:05;;;;;;;14.35;6.22;;;7.30;99.90;;;;;;5111400;28;20557;-46
2023/03/09 09:38:35;;;;;;;13.20;6.28;;;7.30;99.90;;;;;;5117538;27;20035;-53
2023/03/09 09:41:15;;;;;;;11.57;5.60;;;7.40;99.90;;;;;;5110992;27;20023;-47
2023/03/09 09:43:41;;;;;;;14.35;5.72;;;7.40;99.90;;;;;;5103294;28;20080;-47
2023/03/09 09:46:11;;;;;;;13.07;5.68;;;7.50;99.90;;;;;;5110049;28;20049;-47
2023/03/09 09:48:40;;;;;;;11.75;5.13;;;7.60;99.90;;;;;;5109114;27;20122;-48
2023/03/09 09:51:24;;;;;;;12.63;5.80;;;7.70;99.90;;;;;;5110881;28;20471;-48
2023/03/09 09:53:56;;;;;;;15.93;5.45;;;7.60;99.90;;;;;;5111264;28;20026;-45
2023/03/09 09:56:27;;;;;;;12.77;5.22;;;7.70;99.90;;;;;;5111449;28;20094;-50
2023/03/09 09:59:05;;;;;;;18.60;5.63;;;7.70;99.90;;;;;;5111419;27;20026;-49
2023/03/09 10:01:37;;;;;;;19.48;6.70;;;7.80;99.90;;;;;;5111527;27;20042;-50
2023/03/09 10:04:11;;;;;;;22.52;6.40;;;7.80;99.90;;;;;;5111006;28;20023;-53
2023/03/09 10:06:38;;;;;;;19.75;6.25;;;7.90;99.90;;;;;;5104500;28;20084;-53
2023/03/09 10:09:13;;;;;;;18.88;6.60;;;8.10;99.90;;;;;;5111552;27;20027;-55
2023/03/09 10:11:43;;;;;;;31.48;7.18;;;8.30;99.90;;;;;;5113952;28;20015;-45
2023/03/09 10:14:30;;;;;;;33.45;8.10;;;8.40;99.90;;;;;;5102344;27;20019;-49
2023/03/09 10:17:09;;;;;;;35.15;7.68;;;8.60;99.90;;;;;;5104257;27;20055;-51
2023/03/09 10:19:40;;;;;;;50.97;7.35;;;8.70;99.90;;;;;;5107327;28;20051;-46
2023/03/09 10:22:12;;;;;;;37.58;7.22;;;8.90;99.90;;;;;;5112656;28;20034;-48
2023/03/09 10:24:50;;;;;;;45.00;8.13;;;9.00;99.90;;;;;;5112178;28;20046;-49
2023/03/09 10:27:36;;;;;;;40.90;5.40;;;9.20;99.90;;;;;;5112576;28;20015;-47
2023/03/09 10:30:21;;;;;;;43.45;6.05;;;9.50;99.90;;;;;;5101981;28;20052;-52
2023/03/09 10:32:57;;;;;;;49.60;6.22;;;9.70;99.90;;;;;;5113479;28;20098;-52
2023/03/09 10:35:41;;;;;;;58.67;7.93;;;9.90;99.90;;;;;;5108522;28;20138;-43
2023/03/09 10:38:15;;;;;;;50.33;6.43;;;10.10;99.90;;;;;;5119336;28;20032;-50
2023/03/09 10:40:49;;;;;;;41.83;5.60;;;10.20;99.90;;;;;;5109156;28;20441;-50
2023/03/09 10:43:26;;;;;;;45.28;6.28;;;10.30;99.90;;;;;;5099034;28;20099;-48
2023/03/09 10:45:53;;;;;;;50.70;6.35;;;10.30;99.90;;;;;;5109629;28;20034;-45
2023/03/09 10:48:27;;;;;;;61.55;6.85;;;10.40;99.90;;;;;;5105512;28;20064;-51
2023/03/09 10:51:02;;;;;;;40.85;5.13;;;10.40;99.90;;;;;;5110700;28;20114;-51
2023/03/09 10:53:35;;;;;;;52.22;6.18;;;10.40;99.90;;;;;;5110577;28;20028;-43
2023/03/09 10:56:19;;;;;;;45.45;5.28;;;10.50;99.90;;;;;;5097040;28;20411;-45
2023/03/09 10:58:45;;;;;;;44.53;5.18;;;10.50;99.90;;;;;;5096875;28;20024;-46
2023/03/09 11:01:10;;;;;;;38.45;4.28;;;10.60;99.90;;;;;;5107735;27;20031;-51
2023/03/09 11:03:39;;;;;;;43.80;5.57;;;10.70;99.90;;;;;;5121871;27;20026;-53
2023/03/09 11:06:11;;;;;;;38.13;4.97;;;10.60;99.90;;;;;;5104539;27;20161;-43
2023/03/09 11:08:37;;;;;;;41.05;5.65;;;10.70;99.90;;;;;;5113953;27;20028;-51
2023/03/09 11:11:06;;;;;;;36.13;5.03;;;10.80;99.90;;;;;;5102677;28;20025;-48
2023/03/09 11:13:32;;;;;;;35.58;5.45;;;11.00;99.90;;;;;;5103674;28;20030;-43
2023/03/09 11:16:06;;;;;;;37.47;5.47;;;11.10;99.90;;;;;;5106742;28;20098;-46
2023/03/09 11:18:32;;;;;;;29.10;4.55;;;11.50;99.90;;;;;;5103071;28;20024;-44
2023/03/09 11:20:58;;;;;;;31.33;5.18;;;11.80;99.90;;;;;;5101259;28;20015;-45
2023/03/09 11:23:45;;;;;;;23.65;3.83;;;11.90;99.90;;;;;;5102296;28;20023;-45
2023/03/09 11:26:39;;;;;;;40.45;6.30;;;12.00;99.90;;;;;;5103146;28;20106;-42
2023/03/09 11:29:10;;;;;;;29.30;4.65;;;12.40;99.90;;;;;;5106057;28;20160;-44
2023/03/09 11:31:42;;;;;;;39.58;6.20;;;12.90;99.90;;;;;;5104669;28;20019;-46
2023/03/09 11:34:27;;;;;;;39.47;4.40;;;12.80;99.90;;;;;;5106851;28;20444;-52
2023/03/09 11:36:57;;;;;;;46.15;5.20;;;12.40;99.90;;;;;;5102315;27;20028;-46
2023/03/09 11:39:33;;;;;;;34.58;5.38;;;12.00;99.90;;;;;;5098680;28;20020;-48
2023/03/09 11:42:04;;;;;;;28.92;4.47;;;12.00;99.90;;;;;;5106100;27;20626;-51
2023/03/09 11:44:38;;;;;;;32.67;5.60;;;11.90;99.90;;;;;;5104937;27;20040;-44
2023/03/09 11:47:17;;;;;;;27.92;5.65;;;11.80;99.90;;;;;;5100156;27;20101;-46
2023/03/09 11:49:43;;;;;;;;;;;11.70;99.90;;;;;;5097894;28;20032;-42
2023/03/09 11:52:22;;;;;;;34.13;4.68;;;11.50;99.90;;;;;;5103810;27;19922;-47
2023/03/09 11:54:51;;;;;;;35.88;5.25;;;11.50;99.90;;;;;;5102707;27;20072;-43
2023/03/09 11:57:19;;;;;;;;;;;11.40;99.90;;;;;;5100783;28;20023;-44
2023/03/09 11:59:59;;;;;;;41.15;5.68;;;11.40;99.90;;;;;;5105528;27;19904;-44
2023/03/09 12:02:56;;;;;;;39.42;5.05;;;11.50;99.90;;;;;;5106097;27;20023;-48
2023/03/09 12:05:24;;;;;;;42.40;5.28;;;11.50;99.90;;;;;;5104682;27;20039;-45
2023/03/09 12:07:59;;;;;;;29.67;4.35;;;11.50;99.90;;;;;;5099229;27;20027;-54
2023/03/09 12:10:37;;;;;;;32.15;5.03;;;11.50;99.90;;;;;;5099523;28;20028;-44
2023/03/09 12:13:24;;;;;;;36.80;4.68;;;11.50;99.90;;;;;;5102610;28;20027;-47
2023/03/09 12:16:00;;;;;;;42.95;6.70;;;11.60;99.90;;;;;;5102543;28;20454;-50
2023/03/09 12:18:37;;;;;;;32.17;6.00;;;11.60;99.90;;;;;;5104436;28;20022;-46
2023/03/09 12:21:07;;;;;;;35.13;5.38;;;11.60;99.90;;;;;;5104311;27;20024;-44
2023/03/09 12:23:35;;;;;;;30.77;5.38;;;11.50;99.90;;;;;;5099598;28;20519;-44
2023/03/09 12:26:03;;;;;;;29.80;5.97;;;11.50;99.90;;;;;;5098418;28;20020;-47
2023/03/09 12:28:29;;;;;;;31.45;4.55;;;11.50;99.90;;;;;;5104463;27;20032;-48
2023/03/09 12:30:57;;;;;;;35.38;5.03;;;11.50;99.90;;;;;;5098181;28;20024;-45
2023/03/09 12:33:41;;;;;;;43.92;5.85;;;11.50;99.90;;;;;;5100385;28;20036;-45
2023/03/09 12:36:23;;;;;;;37.35;5.10;;;11.50;99.90;;;;;;5101041;28;20541;-45
2023/03/09 12:39:27;;;;;;;40.63;5.32;;;11.40;99.90;;;;;;5105700;28;20043;-45
2023/03/09 12:42:01;;;;;;;39.45;4.93;;;11.20;99.90;;;;;;5106126;27;20058;-44
2023/03/09 12:44:45;;;;;;;39.72;5.68;;;11.10;99.90;;;;;;5107362;27;20077;-45
2023/03/09 12:47:23;;;;;;;40.20;5.32;;;11.00;99.90;;;;;;5104074;28;20110;-44
2023/03/09 12:49:53;;;;;;;31.85;6.22;;;10.90;99.90;;;;;;5101404;27;20050;-46